KBIL

Billings Logan International Airport

Billings, Montana, USA
KBIL 221124Z 2212/2312 VRB06KT P6SM FEW030 BKN070 FM221400 24011KT P6SM FEW070 FM221800 26018KT P6SM SCT200 FM230200 25016G24KT P6SM SCT100 BKN200
Issued Valid From Valid To
Jan-22 @ 11:24 UTC
(6 hours ago)
Jan-22 @ 12:00 UTC
(5 hours ago)
Jan-23 @ 12:00 UTC
(in 19 hours)
Expired Click to View Jan-22 @ 12:00 to Jan-22 @ 14:00
KBIL 221124Z 2212/2312 VRB06KT P6SM FEW030 BKN070
Wind Visibility Clouds
Variable at 6 knots Greater than 6 miles
  • Few at 3,000' AGL
  • Broken at 7,000' AGL
From Jan-22 @ 14:00 to Jan-22 @ 18:00
FM221400 24011KT P6SM FEW070
Wind Visibility Clouds
240° at 11 knots Greater than 6 miles
  • Few at 7,000' AGL
From Jan-22 @ 18:00 to Jan-23 @ 02:00
FM221800 26018KT P6SM SCT200
Wind Visibility Clouds
260° at 18 knots Greater than 6 miles
  • Scattered at 20,000' AGL
From Jan-23 @ 02:00 to Jan-23 @ 12:00
FM230200 25016G24KT P6SM SCT100 BKN200
Wind Visibility Clouds
250° at 16 knots
 Gusting to 24 knots
Greater than 6 miles
  • Scattered at 10,000' AGL
  • Broken at 20,000' AGL
KBIL 221124Z 2212/2312 VRB06KT P6SM FEW030 BKN070 FM221400 24011KT P6SM FEW070 FM221800 26018KT P6SM SCT200 FM230200 25016G24KT P6SM SCT100 BKN200
Issued Jan-22 @ 11:24 UTC
(6 hours ago)
Valid From Jan-22 @ 12:00 UTC
(5 hours ago)
Valid To Jan-23 @ 12:00 UTC
(in 19 hours)
Jan-22 @ 12:00 - Jan-22 @ 14:00
Wind Visibility
Variable at 6 knots Greater than 6 miles
Clouds
  • Few at 3,000' AGL
  • Broken at 7,000' AGL
From Jan-22 @ 14:00 - Jan-22 @ 18:00
Wind Visibility
240° at 11 knots Greater than 6 miles
Clouds
  • Few at 7,000' AGL
From Jan-22 @ 18:00 - Jan-23 @ 02:00
Wind Visibility
260° at 18 knots Greater than 6 miles
Clouds
  • Scattered at 20,000' AGL
From Jan-23 @ 02:00 - Jan-23 @ 12:00
Wind Visibility
250° at 16 knots
 Gusting to 24 knots
Greater than 6 miles
Clouds
  • Scattered at 10,000' AGL
  • Broken at 20,000' AGL